National Weather Service Raw Text Product

Displaying AFOS PIL: TAFOTM Received: 2017-11-15 05:56 UTC


042 
FTUS43 KDMX 150556 CCA
TAFOTM
TAF COR
KOTM 150556Z 1506/1606 19011KT 2SM -RADZ BR OVC002
     FM150900 22008KT 3SM -RADZ BR OVC006
     FM151100 27010KT P6SM SCT006 OVC011
     FM151600 29012KT P6SM SCT014
     FM151900 31016G24KT P6SM SKC
     FM160100 32010KT P6SM FEW250=